Terminal Aerodrome Forecast
Issued by NWS Hastings, NE

Home | Current Version | Previous Version | Text Only | Print | Product List | Glossary On
Versions: 1 2 3 4 5 6 7 8 9 10 11 12 13 14 15 16 17 18 19
000
FTUS45 KGID 181531 AAA
TAFEAR
TAF AMD
KEAR 181531Z 1816/1912 10012G18KT P6SM BKN010
     FM181600 13010KT P6SM FEW020
     FM181700 15011G18KT P6SM SCT050
     FM190100 15008KT P6SM SCT050
     FM190600 15008G15KT P6SM SCT030
      AMD LTD TO CLD VIS AND WIND=

USA.gov is the U.S. government's official web portal to all federal, state and local government web resources and services.